Time;durP1;ratioP1;P1;durP2;ratioP2;P2;SDS_P1;SDS_P2;PMS_P1;PMS_P2;Temp;Humidity;BMP_temperature;BMP_pressure;BME280_temperature;BME280_humidity;BME280_pressure;Samples;Min_cycle;Max_cycle;Signal;HPM_P1;HPM_P2
2022/04/04 00:00:08;;;;;;;8.60;3.25;;;;;;;0.21;57.95;98859.53;1811551;78;21065;-61
2022/04/04 00:02:37;;;;;;;3.35;2.62;;;;;;;0.16;58.11;98851.06;1805693;78;20949;-60
2022/04/04 00:05:06;;;;;;;4.65;3.05;;;;;;;0.11;58.12;98845.20;1808206;78;21107;-61
2022/04/04 00:07:32;;;;;;;4.60;3.05;;;;;;;0.06;58.33;98839.30;1810939;78;20936;-61
2022/04/04 00:09:59;;;;;;;7.47;3.00;;;;;;;0.04;58.40;98837.64;1810682;78;20951;-61
2022/04/04 00:12:26;;;;;;;4.40;3.00;;;;;;;-0.02;58.43;98830.90;1810648;78;22133;-60
2022/04/04 00:14:52;;;;;;;6.12;2.52;;;;;;;-0.07;58.55;98832.70;1809534;78;21080;-60
2022/04/04 00:17:19;;;;;;;7.77;2.80;;;;;;;-0.11;58.75;98827.20;1801893;78;21564;-60
2022/04/04 00:19:46;;;;;;;5.47;3.08;;;;;;;-0.13;58.84;98822.55;1815405;78;20967;-61
2022/04/04 00:22:12;;;;;;;3.93;2.83;;;;;;;-0.13;59.03;98828.97;1811718;78;21574;-60
2022/04/04 00:24:39;;;;;;;5.55;2.70;;;;;;;-0.12;59.17;98821.67;1809494;78;21053;-61
2022/04/04 00:27:06;;;;;;;5.00;2.40;;;;;;;-0.10;59.31;98820.77;1806153;78;20913;-61
2022/04/04 00:29:34;;;;;;;6.75;2.45;;;;;;;-0.04;59.58;98812.11;1809354;78;20904;-60
2022/04/04 00:32:00;;;;;;;;;;;;;;;0.02;59.72;98814.55;1811070;78;21461;-60
2022/04/04 00:34:27;;;;;;;5.75;3.62;;;;;;;0.09;59.89;98813.57;1812940;78;20157;-60
2022/04/04 00:36:53;;;;;;;3.17;2.42;;;;;;;0.15;59.66;98799.77;1765645;79;21533;-60
2022/04/04 00:39:20;;;;;;;10.32;2.83;;;;;;;0.19;59.82;98793.24;1791780;78;21020;-61
2022/04/04 00:41:48;;;;;;;5.90;3.03;;;;;;;0.24;60.05;98796.17;1800914;78;21128;-61
2022/04/04 00:44:15;;;;;;;5.42;2.50;;;;;;;0.27;60.11;98801.23;1784820;78;21016;-61
2022/04/04 00:46:43;;;;;;;4.08;2.33;;;;;;;0.31;60.14;98802.86;1802437;78;20918;-62
2022/04/04 00:49:11;;;;;;;5.83;2.17;;;;;;;0.36;60.30;98798.48;1786523;78;21072;-62
2022/04/04 00:51:37;;;;;;;;;;;;;;;0.41;60.49;98786.39;1790403;78;21020;-61
2022/04/04 00:54:05;;;;;;;8.78;2.15;;;;;;;0.43;61.01;98782.91;1774932;79;20145;-62
2022/04/04 00:56:34;;;;;;;7.75;1.95;;;;;;;0.42;61.01;98782.94;1771878;79;21064;-61
2022/04/04 00:59:02;;;;;;;2.62;1.42;;;;;;;0.40;61.36;98774.44;1774391;79;21009;-62
2022/04/04 01:01:29;;;;;;;3.08;2.08;;;;;;;0.37;60.80;98771.94;1768993;79;21076;-62
2022/04/04 01:03:57;;;;;;;2.50;1.70;;;;;;;0.33;61.53;98772.86;1768883;79;21005;-61
2022/04/04 01:06:23;;;;;;;3.17;2.30;;;;;;;0.31;61.57;98774.61;1778182;79;20954;-62
2022/04/04 01:08:50;;;;;;;4.47;2.17;;;;;;;0.30;61.75;98770.37;1768284;79;21581;-62
2022/04/04 01:11:17;;;;;;;3.20;2.00;;;;;;;0.30;62.04;98771.65;1772834;79;21059;-62
2022/04/04 01:13:50;;;;;;;2.30;2.10;;;;;;;0.30;61.67;98769.08;1771433;79;21420;-62
2022/04/04 01:16:18;;;;;;;3.72;2.00;;;;;;;0.29;62.10;98764.39;1769387;79;20994;-61
2022/04/04 01:18:47;;;;;;;4.47;1.72;;;;;;;0.29;62.49;98758.41;1771713;79;21045;-62
2022/04/04 01:21:19;;;;;;;2.22;1.70;;;;;;;0.26;62.50;98759.33;1770456;79;21005;-61
2022/04/04 01:23:50;;;;;;;1.90;1.50;;;;;;;0.25;62.66;98755.05;1775829;79;20930;-62
2022/04/04 01:26:19;;;;;;;2.83;1.85;;;;;;;0.25;62.77;98754.20;1762692;79;21193;-62
2022/04/04 01:28:46;;;;;;;5.60;1.82;;;;;;;0.28;62.61;98756.70;1773218;79;20994;-61
2022/04/04 01:31:13;;;;;;;1.47;1.30;;;;;;;0.33;62.73;98754.89;1770908;79;21017;-62
2022/04/04 01:33:40;;;;;;;2.10;1.27;;;;;;;0.35;62.83;98745.00;1780074;79;21631;-61
2022/04/04 01:36:06;;;;;;;2.63;2.10;;;;;;;0.37;63.21;98750.95;1766180;79;21005;-62
2022/04/04 01:38:33;;;;;;;2.52;1.95;;;;;;;0.36;63.19;98747.12;1766424;79;21009;-62
2022/04/04 01:41:00;;;;;;;2.03;1.80;;;;;;;0.39;63.34;98736.78;1771918;79;20965;-62
2022/04/04 01:43:27;;;;;;;2.33;1.85;;;;;;;0.44;63.35;98728.54;1772188;79;22051;-62
2022/04/04 01:48:39;;;;;;;3.77;2.20;;;;;;;0.48;63.62;98725.04;1770171;79;21541;-62
2022/04/04 01:51:06;;;;;;;2.72;2.10;;;;;;;0.52;63.74;98726.65;1774748;80;21513;-62
2022/04/04 01:53:33;;;;;;;3.75;2.75;;;;;;;0.53;64.09;98719.78;1807161;78;20893;-62
2022/04/04 01:56:06;;;;;;;3.62;2.37;;;;;;;0.52;64.38;98711.23;1766164;79;21559;-61
2022/04/04 01:58:34;;;;;;;3.08;2.40;;;;;;;0.54;64.20;98704.80;1793629;79;20973;-62
2022/04/04 02:01:04;;;;;;;5.15;2.62;;;;;;;0.56;64.64;98710.72;1761364;80;21547;-62
2022/04/04 02:03:31;;;;;;;6.37;2.72;;;;;;;0.55;64.78;98703.45;1807836;78;21121;-61
2022/04/04 02:05:59;;;;;;;4.78;2.35;;;;;;;0.59;64.67;98702.97;1774477;79;20995;-62
2022/04/04 02:08:27;;;;;;;3.50;2.17;;;;;;;0.60;64.86;98692.64;1804623;79;20906;-62
2022/04/04 02:10:54;;;;;;;4.83;2.72;;;;;;;0.62;65.33;98693.45;1807133;78;20985;-62
2022/04/04 02:13:23;;;;;;;4.23;2.30;;;;;;;0.64;65.23;98694.27;1799804;78;21024;-62
2022/04/04 02:15:52;;;;;;;4.22;2.35;;;;;;;0.66;65.33;98689.08;1806213;78;21774;-62
2022/04/04 02:18:19;;;;;;;3.90;2.37;;;;;;;0.68;65.55;98683.92;1809143;78;21607;-62
2022/04/04 02:20:47;;;;;;;5.50;2.27;;;;;;;0.71;65.53;98676.14;1807622;79;20928;-62
2022/04/04 02:23:21;;;;;;;3.85;2.65;;;;;;;0.73;65.66;98682.06;1802586;78;20995;-62
2022/04/04 02:25:52;;;;;;;5.75;2.45;;;;;;;0.76;65.75;98671.73;1800981;78;20833;-62
2022/04/04 02:28:22;;;;;;;7.65;2.75;;;;;;;0.80;66.11;98674.63;1807277;79;21996;-62
2022/04/04 02:30:51;;;;;;;4.35;2.27;;;;;;;0.83;65.96;98666.84;1810126;79;21030;-62
2022/04/04 02:33:20;;;;;;;4.05;2.37;;;;;;;0.83;66.33;98661.25;1768100;79;20984;-62
2022/04/04 02:35:50;;;;;;;3.60;2.67;;;;;;;0.83;66.45;98662.98;1806044;78;20942;-62
2022/04/04 02:38:19;;;;;;;5.58;2.92;;;;;;;0.83;66.54;98666.39;1784121;78;21091;-62
2022/04/04 02:40:46;;;;;;;7.08;2.50;;;;;;;0.87;66.57;98660.75;1791633;79;21081;-62
2022/04/04 02:43:13;;;;;;;3.50;2.47;;;;;;;0.89;66.60;98656.39;1792868;79;21484;-62
2022/04/04 02:45:39;;;;;;;8.00;3.02;;;;;;;0.90;66.90;98651.67;1791494;78;21587;-62
2022/04/04 02:48:07;;;;;;;6.60;2.95;;;;;;;0.91;66.91;98645.64;1790468;78;20933;-62
2022/04/04 02:50:34;;;;;;;;;;;;;;;0.93;66.91;98649.03;1797720;78;20985;-62
2022/04/04 02:53:02;;;;;;;4.75;2.98;;;;;;;0.96;67.20;98639.11;1794309;78;22547;-62
2022/04/04 02:58:14;;;;;;;4.00;2.20;;;;;;;1.01;67.18;98644.53;1791305;78;21016;-62
2022/04/04 03:00:42;;;;;;;4.67;2.55;;;;;;;1.01;67.52;98640.68;1792683;78;21025;-62
2022/04/04 03:03:09;;;;;;;3.90;2.45;;;;;;;1.02;67.51;98638.95;1796878;78;21028;-62
2022/04/04 03:05:36;;;;;;;3.60;2.60;;;;;;;1.01;67.66;98631.69;1795637;79;21162;-63
2022/04/04 03:08:04;;;;;;;2.65;1.80;;;;;;;1.02;67.84;98633.81;1795471;78;20911;-62
2022/04/04 03:10:34;;;;;;;3.67;2.10;;;;;;;1.02;67.78;98623.08;1794148;78;20969;-62
2022/04/04 03:13:29;;;;;;;4.03;2.22;;;;;;;1.09;68.24;98625.91;1856057;75;23078;-61
2022/04/04 03:15:56;;;;;;;;;;;;;;;1.04;68.09;98621.31;1817465;78;20994;-61
2022/04/04 03:18:22;;;;;;;2.52;2.00;;;;;;;1.05;68.28;98617.85;1815389;77;20964;-62
2022/04/04 03:20:49;;;;;;;2.67;1.83;;;;;;;1.04;68.46;98624.34;1822807;77;20966;-61
2022/04/04 03:23:16;;;;;;;5.13;3.03;;;;;;;1.04;68.66;98618.75;1819716;77;20958;-61
2022/04/04 03:25:42;;;;;;;3.13;1.83;;;;;;;1.03;68.70;98617.04;1814054;78;21564;-60
2022/04/04 03:28:09;;;;;;;3.67;2.50;;;;;;;1.04;68.54;98604.61;1817310;77;20951;-61
2022/04/04 03:30:36;;;;;;;4.35;2.50;;;;;;;1.04;68.78;98613.61;1817816;77;21118;-61
2022/04/04 03:33:03;;;;;;;3.27;2.27;;;;;;;1.04;68.94;98611.03;1813021;78;21563;-61
2022/04/04 03:35:33;;;;;;;3.50;2.15;;;;;;;1.08;69.02;98607.48;1825237;77;20923;-61
2022/04/04 03:38:03;;;;;;;5.05;2.30;;;;;;;1.08;69.16;98604.91;1815163;78;20940;-61
2022/04/04 03:40:30;;;;;;;3.45;2.50;;;;;;;1.09;69.28;98596.34;1826298;77;20968;-62
2022/04/04 03:42:59;;;;;;;3.83;2.25;;;;;;;1.10;69.38;98598.02;1819778;78;21545;-61
2022/04/04 03:45:27;;;;;;;5.08;2.65;;;;;;;1.13;69.53;98583.39;1818310;77;21003;-62
2022/04/04 03:47:55;;;;;;;4.40;2.55;;;;;;;1.11;69.65;98586.83;1827089;77;20909;-62
2022/04/04 03:50:24;;;;;;;7.12;2.35;;;;;;;1.14;69.68;98582.50;1822683;77;21571;-62
2022/04/04 03:52:52;;;;;;;6.42;3.02;;;;;;;1.16;69.93;98575.59;1817009;77;20928;-62
2022/04/04 03:55:23;;;;;;;5.55;2.62;;;;;;;1.16;70.05;98580.73;1820437;77;21251;-61
2022/04/04 03:57:51;;;;;;;2.87;2.05;;;;;;;1.17;70.07;98566.98;1781885;78;21046;-62
2022/04/04 04:00:19;;;;;;;;;;;;;;;1.20;70.26;98564.33;1769578;79;20903;-62
2022/04/04 04:02:45;;;;;;;5.47;2.70;;;;;;;1.21;70.62;98563.47;1766401;80;20204;-62
2022/04/04 04:05:13;;;;;;;7.07;3.13;;;;;;;1.20;70.62;98564.33;1775612;79;21488;-62
2022/04/04 04:07:41;;;;;;;3.15;2.20;;;;;;;1.20;71.08;98560.02;1777259;80;21065;-62
2022/04/04 04:10:12;;;;;;;3.15;2.30;;;;;;;1.23;70.81;98553.95;1774382;80;20978;-62
2022/04/04 04:12:41;;;;;;;4.85;2.72;;;;;;;1.24;70.93;98547.95;1774265;80;21024;-63
2022/04/04 04:15:12;;;;;;;4.30;2.35;;;;;;;1.26;70.95;98550.01;1775059;80;21652;-63
2022/04/04 04:17:39;;;;;;;6.58;2.67;;;;;;;1.27;71.19;98548.69;1777651;80;21053;-63
2022/04/04 04:20:19;;;;;;;6.90;3.08;;;;;;;1.29;71.37;98546.09;1772350;80;21410;-62
2022/04/04 04:22:54;;;;;;;3.02;2.02;;;;;;;1.30;71.50;98540.89;1771730;80;21033;-61
2022/04/04 04:25:23;;;;;;;3.02;2.10;;;;;;;1.30;71.47;98542.63;1768301;80;20973;-62
2022/04/04 04:27:50;;;;;;;5.47;2.20;;;;;;;1.32;71.34;98540.41;1776648;79;20998;-62
2022/04/04 04:30:18;;;;;;;4.03;2.35;;;;;;;1.33;71.52;98529.22;1773853;80;21587;-62
2022/04/04 04:32:47;;;;;;;;;;;;;;;1.37;71.59;98526.11;1777238;80;21499;-62
2022/04/04 04:35:15;;;;;;;3.20;1.90;;;;;;;1.37;71.89;98526.11;1775714;80;20648;-62
2022/04/04 04:37:45;;;;;;;5.45;2.40;;;;;;;1.37;71.80;98517.55;1778209;80;20943;-62
2022/04/04 04:40:14;;;;;;;;;;;;;;;1.36;72.06;98521.87;1772495;79;21029;-62
2022/04/04 04:42:43;;;;;;;2.22;1.82;;;;;;;1.37;72.48;98508.11;1777671;79;20136;-62
2022/04/04 04:45:12;;;;;;;4.30;2.37;;;;;;;1.38;72.08;98502.55;1773297;80;21065;-62
2022/04/04 04:47:40;;;;;;;2.58;1.95;;;;;;;1.38;72.12;98507.23;1775194;79;20972;-62
2022/04/04 04:50:08;;;;;;;3.70;2.08;;;;;;;1.40;72.29;98509.33;1774846;80;21472;-62
2022/04/04 04:52:36;;;;;;;2.98;2.25;;;;;;;1.42;72.23;98506.25;1772795;80;21086;-62
2022/04/04 04:55:08;;;;;;;;;;;;;;;1.43;72.41;98498.95;1776693;80;21571;-62
2022/04/04 04:57:35;;;;;;;3.08;2.22;;;;;;;1.47;72.63;98499.24;1772727;80;21077;-62
2022/04/04 05:00:08;;;;;;;4.93;1.87;;;;;;;1.46;72.63;98500.14;1775094;80;21054;-62
2022/04/04 05:02:35;;;;;;;3.12;2.47;;;;;;;1.48;72.63;98503.48;1773640;80;21047;-62
2022/04/04 05:05:04;;;;;;;2.20;1.98;;;;;;;1.51;72.67;98496.99;1776186;80;20931;-63
2022/04/04 05:07:32;;;;;;;3.65;2.33;;;;;;;1.52;72.69;98497.38;1775609;80;21068;-64
2022/04/04 05:10:00;;;;;;;4.05;2.15;;;;;;;1.52;72.79;98500.41;1772054;80;21040;-65
2022/04/04 05:12:28;;;;;;;3.72;2.12;;;;;;;1.52;72.81;98499.12;1764462;80;20953;-62
2022/04/04 05:14:56;;;;;;;4.90;2.33;;;;;;;1.50;72.87;98495.28;1776745;80;21020;-63
2022/04/04 05:17:24;;;;;;;3.33;1.87;;;;;;;1.51;72.78;98499.98;1779402;79;21048;-63
2022/04/04 05:19:51;;;;;;;4.03;2.20;;;;;;;1.48;73.13;98490.63;1774628;80;20993;-62
2022/04/04 05:22:19;;;;;;;3.75;2.35;;;;;;;1.45;73.09;98490.72;1778655;80;21119;-63
2022/04/04 05:24:47;;;;;;;3.20;1.95;;;;;;;1.45;73.28;98489.88;1781960;79;21563;-63
2022/04/04 05:27:14;;;;;;;2.22;1.80;;;;;;;1.42;73.49;98492.10;1717536;82;21052;-62
2022/04/04 05:29:41;;;;;;;3.95;1.65;;;;;;;1.43;73.43;98483.94;1740162;82;21068;-63
2022/04/04 05:32:08;;;;;;;2.10;1.90;;;;;;;1.43;73.49;98492.52;1739567;80;21035;-62
2022/04/04 05:34:35;;;;;;;1.77;1.62;;;;;;;1.31;73.73;98472.29;1744954;80;21453;-63
2022/04/04 05:37:03;;;;;;;2.37;2.10;;;;;;;1.44;73.79;98492.91;1775535;79;21020;-63
2022/04/04 05:39:32;;;;;;;2.60;2.10;;;;;;;1.49;73.72;98494.91;1774635;80;21068;-61
2022/04/04 05:41:59;;;;;;;2.50;1.55;;;;;;;1.53;73.77;98488.76;1750365;80;20998;-61
2022/04/04 05:44:26;;;;;;;2.42;1.60;;;;;;;1.60;73.86;98488.56;1749029;80;21084;-61
2022/04/04 05:46:53;;;;;;;1.77;1.40;;;;;;;1.65;73.79;98482.84;1741712;81;21245;-61
2022/04/04 05:49:20;;;;;;;2.98;1.40;;;;;;;1.69;73.82;98477.56;1754778;81;20933;-61
2022/04/04 05:51:47;;;;;;;3.17;1.60;;;;;;;1.72;73.87;98481.78;1754846;81;21024;-61
2022/04/04 05:54:14;;;;;;;1.90;1.50;;;;;;;1.73;73.88;98482.16;1753659;81;20994;-61
2022/04/04 05:56:43;;;;;;;1.67;1.33;;;;;;;1.74;73.92;98469.71;1753638;81;20993;-62
2022/04/04 05:59:12;;;;;;;1.12;1.02;;;;;;;1.74;74.01;98477.43;1756549;80;21236;-62
2022/04/04 06:01:40;;;;;;;1.27;1.17;;;;;;;1.70;74.01;98475.83;1755071;80;21004;-63
2022/04/04 06:04:08;;;;;;;2.27;1.40;;;;;;;1.68;74.03;98477.59;1751879;81;21013;-62
2022/04/04 06:06:34;;;;;;;1.40;1.30;;;;;;;1.66;74.21;98470.39;1754480;81;21017;-64
2022/04/04 06:09:02;;;;;;;1.77;1.37;;;;;;;1.67;74.30;98473.35;1755484;81;21538;-65
2022/04/04 06:11:29;;;;;;;1.50;1.35;;;;;;;1.66;74.26;98470.39;1754171;81;22267;-64
2022/04/04 06:13:57;;;;;;;1.95;1.40;;;;;;;1.67;74.41;98474.19;1775761;80;21585;-64
2022/04/04 06:16:25;;;;;;;1.47;1.37;;;;;;;1.66;74.50;98479.40;1774308;79;21039;-67
2022/04/04 06:18:53;;;;;;;1.42;1.32;;;;;;;1.69;74.52;98476.28;1769096;78;21515;-65
2022/04/04 06:21:19;;;;;;;;;;;;;;;1.69;74.54;98469.01;1772961;80;20989;-64
2022/04/04 06:23:46;;;;;;;1.70;1.43;;;;;;;1.69;74.79;98470.30;1756790;80;21976;-64
2022/04/04 06:26:13;;;;;;;1.30;1.20;;;;;;;1.66;74.64;98460.94;1788387;78;21627;-64
2022/04/04 06:28:40;;;;;;;1.30;1.10;;;;;;;1.68;75.07;98463.45;1777416;80;21859;-67
2022/04/04 06:31:07;;;;;;;1.90;1.45;;;;;;;1.68;74.94;98466.89;1776986;80;27149;-67
2022/04/04 06:33:34;;;;;;;1.82;1.55;;;;;;;1.74;74.96;98471.00;1777890;80;21024;-68
2022/04/04 06:36:01;;;;;;;1.80;1.50;;;;;;;1.80;75.00;98463.08;1779986;80;21338;-66
2022/04/04 06:38:28;;;;;;;1.52;1.42;;;;;;;1.84;75.01;98470.25;1777301;78;20942;-67
2022/04/04 06:40:56;;;;;;;1.45;1.35;;;;;;;1.82;75.07;98463.01;1772572;78;21187;-62
2022/04/04 06:43:24;;;;;;;1.90;1.57;;;;;;;1.85;75.11;98462.91;1750142;79;20935;-62
2022/04/04 06:45:50;;;;;;;2.02;1.77;;;;;;;1.85;75.19;98461.20;1776809;79;21707;-62
2022/04/04 06:48:17;;;;;;;2.60;2.15;;;;;;;1.90;75.26;98449.00;1777195;80;22110;-62
2022/04/04 06:50:44;;;;;;;1.55;1.32;;;;;;;1.92;75.39;98449.80;1774063;79;21140;-62
2022/04/04 06:53:11;;;;;;;1.80;1.70;;;;;;;1.97;75.42;98445.34;1747971;80;21246;-62
2022/04/04 06:55:44;;;;;;;2.42;2.10;;;;;;;1.99;75.39;98446.15;1777321;79;21013;-62
2022/04/04 06:58:11;;;;;;;1.85;1.65;;;;;;;2.05;75.55;98440.41;1770861;79;20938;-62
2022/04/04 07:00:38;;;;;;;2.30;2.10;;;;;;;2.10;75.53;98444.93;1773104;79;21612;-62
2022/04/04 07:03:07;;;;;;;3.03;1.90;;;;;;;2.13;75.54;98447.40;1776722;79;21044;-61
2022/04/04 07:05:33;;;;;;;4.58;3.10;;;;;;;2.10;75.59;98441.94;1779663;79;21527;-61
2022/04/04 07:08:00;;;;;;;2.47;2.27;;;;;;;2.13;75.62;98425.52;1775232;79;21577;-62
2022/04/04 07:10:27;;;;;;;5.03;2.30;;;;;;;2.12;75.69;98443.16;1774251;80;21020;-62
2022/04/04 07:12:54;;;;;;;1.80;1.70;;;;;;;2.15;75.96;98441.77;1776247;79;21274;-62
2022/04/04 07:15:23;;;;;;;3.80;2.35;;;;;;;2.19;75.89;98439.49;1779613;79;21084;-64
2022/04/04 07:17:50;;;;;;;1.85;1.72;;;;;;;2.22;75.88;98436.81;1725615;80;20974;-62
2022/04/04 07:20:19;;;;;;;2.45;2.22;;;;;;;2.26;75.88;98431.94;1770302;79;21477;-61
2022/04/04 07:22:45;;;;;;;2.55;2.25;;;;;;;2.26;76.06;98442.23;1776556;79;22428;-62
2022/04/04 07:25:14;;;;;;;2.40;2.20;;;;;;;2.26;76.12;98440.95;1771319;80;21451;-61
2022/04/04 07:27:44;;;;;;;2.42;2.10;;;;;;;2.33;76.31;98429.56;1775986;79;21037;-62
2022/04/04 07:30:16;;;;;;;3.62;2.58;;;;;;;2.39;76.27;98425.93;1773472;79;21055;-62
2022/04/04 07:32:43;;;;;;;3.22;2.30;;;;;;;2.46;76.28;98430.82;1779270;80;21041;-62
2022/04/04 07:35:15;;;;;;;2.45;2.02;;;;;;;2.51;76.27;98424.20;1779399;80;20997;-62
2022/04/04 07:37:45;;;;;;;3.33;2.25;;;;;;;2.54;76.22;98416.81;1777554;78;21496;-61
2022/04/04 07:40:14;;;;;;;3.05;2.60;;;;;;;2.60;76.33;98420.45;1776525;80;20985;-61
2022/04/04 07:42:43;;;;;;;3.90;2.50;;;;;;;2.64;76.25;98405.29;1777204;80;21660;-61
2022/04/04 07:45:17;;;;;;;4.30;2.60;;;;;;;2.65;76.27;98406.95;1777325;80;21531;-61
2022/04/04 07:47:43;;;;;;;2.80;2.50;;;;;;;2.66;76.38;98413.78;1776840;79;22004;-61
2022/04/04 07:50:13;;;;;;;3.40;2.70;;;;;;;2.73;76.50;98402.38;1776757;80;21013;-61
2022/04/04 07:52:40;;;;;;;4.17;2.98;;;;;;;2.79;76.57;98406.45;1781200;80;21037;-62
2022/04/04 07:55:09;;;;;;;4.10;2.60;;;;;;;2.80;76.67;98403.84;1778142;80;28280;-62
2022/04/04 07:57:36;;;;;;;4.10;2.40;;;;;;;2.90;76.83;98401.30;1782803;79;21068;-62
2022/04/04 08:00:07;;;;;;;4.08;3.37;;;;;;;3.06;76.73;98395.58;1783108;79;21709;-62
2022/04/04 08:02:34;;;;;;;3.40;2.40;;;;;;;3.07;76.50;98396.79;1780717;80;21097;-62
2022/04/04 08:05:01;;;;;;;;;;;;;;;3.12;76.57;98394.05;1786560;80;21049;-62
2022/04/04 08:07:28;;;;;;;7.95;4.05;;;;;;;3.11;76.61;98389.80;1777101;79;20494;-63
2022/04/04 08:09:54;;;;;;;6.08;3.05;;;;;;;3.13;76.52;98399.58;1777903;79;21581;-62
2022/04/04 08:12:27;;;;;;;6.15;3.15;;;;;;;3.14;76.58;98386.64;1781457;80;21101;-62
2022/04/04 08:14:54;;;;;;;5.58;3.25;;;;;;;3.16;76.53;98379.28;1779037;79;21112;-62
2022/04/04 08:17:21;;;;;;;5.37;3.15;;;;;;;3.15;76.53;98386.19;1779512;80;21061;-62
2022/04/04 08:19:50;;;;;;;5.35;3.35;;;;;;;3.19;76.62;98381.74;1773605;79;20949;-67
2022/04/04 08:22:18;;;;;;;4.97;3.12;;;;;;;3.38;76.93;98378.00;1773383;80;21744;-62
2022/04/04 08:24:45;;;;;;;6.22;3.08;;;;;;;3.66;76.87;98364.38;1774587;80;20981;-62
2022/04/04 08:27:13;;;;;;;3.95;2.62;;;;;;;3.95;76.80;98363.61;1776166;80;22193;-63
2022/04/04 08:29:43;;;;;;;6.03;2.70;;;;;;;4.20;76.71;98352.65;1779601;80;25630;-63
2022/04/04 08:32:13;;;;;;;3.95;2.75;;;;;;;4.41;76.57;98342.27;1777552;79;20974;-63
2022/04/04 08:34:41;;;;;;;3.98;2.90;;;;;;;4.54;76.30;98343.41;1774440;78;21072;-63
2022/04/04 08:37:07;;;;;;;;;;;;;;;4.74;76.48;98331.33;1757818;80;21000;-63
2022/04/04 08:39:44;;;;;;;4.50;2.20;;;;;;;5.03;76.71;98323.04;1757906;80;20730;-63
2022/04/04 08:42:12;;;;;;;2.85;2.47;;;;;;;5.23;76.10;98321.26;1774818;80;21487;-64
2022/04/04 08:44:40;;;;;;;3.15;2.30;;;;;;;5.34;75.93;98328.05;1766431;80;21141;-66
2022/04/04 08:47:08;;;;;;;4.00;2.20;;;;;;;5.53;75.82;98314.59;1749529;80;21009;-62
2022/04/04 08:49:37;;;;;;;4.50;2.47;;;;;;;5.78;76.01;98318.56;1747293;80;21097;-62
2022/04/04 08:52:07;;;;;;;7.17;2.92;;;;;;;5.98;76.12;98315.83;1769768;79;21082;-62
2022/04/04 08:54:34;;;;;;;4.90;2.33;;;;;;;5.98;75.25;98313.70;1778637;80;21106;-63
2022/04/04 08:57:02;;;;;;;3.12;2.12;;;;;;;5.91;75.17;98306.68;1780733;80;20923;-63
2022/04/04 08:59:29;;;;;;;3.08;1.85;;;;;;;5.96;75.58;98313.77;1780665;80;21061;-63
2022/04/04 09:01:56;;;;;;;6.20;2.75;;;;;;;5.90;74.69;98292.03;1780971;80;21075;-62
2022/04/04 09:04:23;;;;;;;5.37;2.12;;;;;;;5.74;74.74;98304.08;1783511;80;23241;-63
2022/04/04 09:07:03;;;;;;;6.00;2.63;;;;;;;5.73;74.79;98294.64;1782050;79;20973;-62
2022/04/04 09:09:45;;;;;;;2.67;1.72;;;;;;;5.68;74.46;98286.27;1777461;80;21534;-63
2022/04/04 09:12:22;;;;;;;7.40;1.90;;;;;;;5.79;74.76;98276.20;1773923;79;20980;-62
2022/04/04 09:14:58;;;;;;;3.00;1.77;;;;;;;5.87;74.52;98289.60;1784112;78;21003;-63
2022/04/04 09:17:33;;;;;;;2.75;1.57;;;;;;;6.09;74.68;98280.77;1755082;80;21083;-63
2022/04/04 09:20:08;;;;;;;3.83;1.67;;;;;;;6.18;74.14;98267.32;1778856;78;21034;-62
2022/04/04 09:22:35;;;;;;;2.60;2.00;;;;;;;6.26;74.16;98259.98;1780579;79;20988;-63
2022/04/04 09:25:05;;;;;;;3.52;2.08;;;;;;;6.56;74.42;98264.45;1768119;79;21554;-62
2022/04/04 09:27:36;;;;;;;4.12;2.12;;;;;;;6.71;74.21;98246.75;1784114;79;20930;-63
2022/04/04 09:30:10;;;;;;;1.67;1.27;;;;;;;6.83;73.64;98238.27;1786865;78;21179;-63
2022/04/04 09:32:46;;;;;;;1.98;1.42;;;;;;;6.90;73.42;98240.91;1784563;79;20973;-63
2022/04/04 09:35:18;;;;;;;4.00;1.87;;;;;;;6.89;73.15;98238.39;1776293;79;21048;-63
2022/04/04 09:37:48;;;;;;;2.17;1.55;;;;;;;7.11;73.75;98230.23;1777193;78;20973;-62
2022/04/04 09:40:18;;;;;;;4.28;1.60;;;;;;;7.39;73.39;98225.59;1768581;79;20992;-61
2022/04/04 09:42:58;;;;;;;2.83;1.65;;;;;;;7.49;73.15;98219.41;1785145;79;21028;-62
2022/04/04 09:45:30;;;;;;;4.17;1.92;;;;;;;7.59;72.49;98204.97;1780120;78;21089;-62
2022/04/04 09:48:11;;;;;;;2.87;1.60;;;;;;;7.69;72.64;98203.48;1783670;79;21586;-61
2022/04/04 09:50:45;;;;;;;2.00;1.27;;;;;;;7.89;72.86;98201.45;1791609;79;21064;-61
2022/04/04 09:53:22;;;;;;;2.60;1.20;;;;;;;7.99;72.06;98190.41;1785979;79;21054;-61
2022/04/04 09:55:52;;;;;;;;;;;;;;;8.01;71.71;98192.89;1797861;79;22216;-61
2022/04/04 09:58:22;;;;;;;3.12;1.27;;;;;;;7.72;69.58;98183.81;1789904;78;20191;-61
2022/04/04 10:00:49;;;;;;;3.75;1.20;;;;;;;7.48;70.60;98177.03;1794182;79;21052;-62
2022/04/04 10:03:20;;;;;;;2.40;1.20;;;;;;;7.60;71.28;98181.48;1789437;78;21632;-62
2022/04/04 10:06:09;;;;;;;2.55;1.50;;;;;;;7.79;70.92;98187.72;1772073;80;21520;-62
2022/04/04 10:08:39;;;;;;;4.47;1.90;;;;;;;7.83;70.16;98174.90;1707961;82;21469;-61
2022/04/04 10:11:11;;;;;;;2.47;1.60;;;;;;;8.02;70.10;98167.29;1684514;83;20977;-61
2022/04/04 10:13:38;;;;;;;2.80;1.60;;;;;;;8.10;69.32;98152.06;1682830;84;20922;-62
2022/04/04 10:16:05;;;;;;;3.85;1.77;;;;;;;8.12;69.78;98155.38;1709499;83;21040;-62
2022/04/04 10:18:32;;;;;;;;;;;;;;;8.11;69.30;98144.62;1714412;83;21063;-61
2022/04/04 10:20:59;;;;;;;;;;;;;;;8.02;68.44;98151.22;1711915;82;21566;-68
2022/04/04 10:23:30;;;;;;;1.22;1.10;;;;;;;7.91;67.99;98129.44;1710346;82;20280;-61
2022/04/04 10:25:58;;;;;;;4.95;1.37;;;;;;;7.87;68.73;98121.44;1710972;82;21503;-62
2022/04/04 10:28:30;;;;;;;2.05;1.35;;;;;;;7.88;68.45;98133.05;1711397;83;21013;-62
2022/04/04 10:31:12;;;;;;;2.20;1.40;;;;;;;7.92;67.75;98120.70;1711902;83;21024;-62
2022/04/04 10:33:42;;;;;;;6.17;2.65;;;;;;;8.08;66.82;98109.25;1711083;83;21664;-61
2022/04/04 10:36:24;;;;;;;2.65;1.45;;;;;;;8.08;66.82;98109.25;1711369;83;21021;-62
2022/04/04 10:38:55;;;;;;;3.85;1.60;;;;;;;8.10;66.77;98115.66;1712148;82;21561;-61
2022/04/04 10:41:28;;;;;;;3.45;1.70;;;;;;;8.10;66.77;98115.66;1711942;83;21632;-61
2022/04/04 10:43:57;;;;;;;2.90;1.35;;;;;;;8.03;66.18;98089.67;1709518;82;21321;-61
2022/04/04 10:46:26;;;;;;;2.77;1.40;;;;;;;8.03;66.18;98089.67;1711208;83;22267;-62
2022/04/04 10:48:59;;;;;;;5.22;1.47;;;;;;;8.03;66.27;98087.08;1711367;82;21606;-64
2022/04/04 10:51:38;;;;;;;5.58;1.57;;;;;;;8.07;65.74;98062.58;1712083;83;22462;-64
2022/04/04 10:54:10;;;;;;;4.62;1.60;;;;;;;8.14;64.76;98070.33;1709308;83;21350;-62
2022/04/04 10:56:46;;;;;;;3.77;1.52;;;;;;;8.14;64.76;98070.33;1710751;83;20929;-62
2022/04/04 10:59:24;;;;;;;6.80;1.90;;;;;;;8.26;65.38;98063.07;1711358;82;21920;-61
2022/04/04 11:01:58;;;;;;;12.90;1.85;;;;;;;8.42;64.62;98066.00;1707704;82;21000;-62
2022/04/04 11:04:34;;;;;;;2.15;1.52;;;;;;;8.42;64.62;98066.00;1714750;82;21036;-61
2022/04/04 11:10:06;;;;;;;4.78;1.25;;;;;;;8.42;63.97;98051.69;1702322;82;21111;-62
2022/04/04 11:12:57;;;;;;;11.78;1.77;;;;;;;8.21;63.87;98026.13;1705399;82;21871;-61
2022/04/04 11:15:44;;;;;;;5.15;1.15;;;;;;;8.30;63.96;98036.39;1704895;82;21063;-61
2022/04/04 11:18:14;;;;;;;4.33;1.10;;;;;;;8.25;63.19;98030.18;1701785;82;21144;-61
2022/04/04 11:20:53;;;;;;;10.08;1.60;;;;;;;8.29;62.74;98036.86;1703910;82;21075;-61
2022/04/04 11:23:22;;;;;;;3.37;1.20;;;;;;;8.29;63.19;97997.86;1699969;82;21005;-61
2022/04/04 11:25:55;;;;;;;2.15;1.37;;;;;;;8.18;62.55;97988.63;1713913;82;23087;-62
2022/04/04 11:28:25;;;;;;;2.52;1.47;;;;;;;8.31;61.93;97987.34;1708731;82;21507;-62
2022/04/04 11:31:08;;;;;;;3.08;1.20;;;;;;;8.31;61.93;97987.34;1714068;82;21000;-62
2022/04/04 11:33:51;;;;;;;2.58;1.60;;;;;;;8.27;61.69;97995.81;1714082;82;20954;-62
2022/04/04 11:36:34;;;;;;;11.80;1.75;;;;;;;8.21;62.04;97972.83;1675572;84;21050;-62
2022/04/04 11:39:08;;;;;;;20.00;2.30;;;;;;;8.47;61.92;97992.41;1719720;82;22247;-62
2022/04/04 11:41:36;;;;;;;13.20;1.47;;;;;;;8.49;61.85;97943.73;1707871;82;20966;-62
2022/04/04 11:44:04;;;;;;;25.00;2.50;;;;;;;8.63;60.85;97967.05;1674542;83;21050;-64
2022/04/04 11:46:31;;;;;;;10.90;1.25;;;;;;;8.45;60.73;97954.78;1700086;82;21000;-62
2022/04/04 11:50:57;;;;;;;3.05;1.40;;;;;;;8.42;60.65;97947.66;1844378;75;22749;-61
2022/04/04 11:53:25;;;;;;;2.27;1.22;;;;;;;8.45;60.73;97939.65;1837886;77;20876;-61
2022/04/04 11:56:02;;;;;;;11.30;1.60;;;;;;;8.45;59.80;97931.84;1831184;77;21269;-62
2022/04/04 11:58:27;;;;;;;4.47;1.62;;;;;;;8.44;60.46;97932.80;1831528;77;21003;-61
2022/04/04 12:01:04;;;;;;;10.38;2.87;;;;;;;8.53;59.00;97915.73;1834116;77;21041;-62
2022/04/04 12:03:29;;;;;;;10.03;3.85;;;;;;;8.53;59.46;97903.55;1832976;77;21026;-61